Time;durP1;ratioP1;P1;durP2;ratioP2;P2;SDS_P1;SDS_P2;PMS_P1;PMS_P2;Temp;Humidity;BMP_temperature;BMP_pressure;BME280_temperature;BME280_humidity;BME280_pressure;Samples;Min_cycle;Max_cycle;Signal;HPM_P1;HPM_P2
2023/08/21 00:00:46;;;;;;;;;0.00;0.00;;;;;24.02;48.95;102060.19;5089998;27;70049;-58
2023/08/21 00:03:11;;;;;;;;;1.00;1.00;;;;;23.99;48.50;102061.31;5081598;27;66549;-59
2023/08/21 00:05:36;;;;;;;;;1.00;1.00;;;;;23.99;49.15;102057.72;5087498;27;67845;-59
2023/08/21 00:08:02;;;;;;;;;1.25;1.00;;;;;23.99;48.96;102060.44;5093459;27;60895;-59
2023/08/21 00:10:27;;;;;;;;;0.00;0.00;;;;;23.95;49.07;102058.00;5071695;27;45471;-59
2023/08/21 00:12:52;;;;;;;;;0.25;0.25;;;;;23.93;49.04;102059.13;5097951;27;45670;-59
2023/08/21 00:15:18;;;;;;;;;0.75;0.50;;;;;23.89;48.80;102058.47;5094335;27;66958;-59
2023/08/21 00:17:43;;;;;;;;;2.75;1.75;;;;;23.88;48.76;102051.31;5094544;27;46057;-59
2023/08/21 00:20:09;;;;;;;;;1.00;1.00;;;;;23.87;49.39;102052.34;5096831;27;66654;-59
2023/08/21 00:22:36;;;;;;;;;2.50;0.50;;;;;23.86;49.21;102050.63;5097919;27;45370;-59
2023/08/21 00:25:01;;;;;;;;;1.00;1.00;;;;;23.85;48.72;102048.03;5101398;27;45432;-59
2023/08/21 00:27:27;;;;;;;;;1.00;1.00;;;;;23.80;49.02;102053.84;5099304;27;45651;-59
2023/08/21 00:29:52;;;;;;;;;1.00;1.00;;;;;23.78;48.67;102045.00;5064207;27;45555;-57
2023/08/21 00:32:17;;;;;;;;;0.75;0.00;;;;;23.73;48.99;102041.81;5089941;27;62903;-59
2023/08/21 00:34:43;;;;;;;;;2.00;1.00;;;;;23.73;49.16;102049.97;5098992;27;45354;-59
2023/08/21 00:37:08;;;;;;;;;1.50;1.50;;;;;23.72;48.93;102043.66;5096249;27;45875;-59
2023/08/21 00:39:34;;;;;;;;;1.00;1.00;;;;;23.69;49.11;102048.50;5095760;27;45368;-59
2023/08/21 00:41:59;;;;;;;;;0.50;0.50;;;;;23.68;49.24;102052.22;5101046;27;66837;-57
2023/08/21 00:44:24;;;;;;;;;1.00;0.00;;;;;23.67;49.07;102055.94;5099319;27;64458;-59
2023/08/21 00:46:50;;;;;;;;;1.00;0.00;;;;;23.65;49.57;102044.31;5099331;27;73549;-57
2023/08/21 00:49:15;;;;;;;;;1.50;0.50;;;;;23.63;49.43;102044.47;5079898;27;45494;-57
2023/08/21 00:51:40;;;;;;;;;1.75;0.00;;;;;23.62;49.40;102045.44;5066167;27;64604;-57
2023/08/21 00:54:06;;;;;;;;;1.50;1.50;;;;;23.59;49.09;102049.28;5099861;27;45462;-58
2023/08/21 00:56:31;;;;;;;;;0.00;0.00;;;;;23.58;49.39;102046.72;5093635;27;46096;-58
2023/08/21 00:58:56;;;;;;;;;1.00;1.00;;;;;23.53;49.79;102047.13;5093945;27;62984;-58
2023/08/21 01:01:25;;;;;;;;;1.00;0.25;;;;;23.50;49.46;102050.06;5100007;27;60593;-57
2023/08/21 01:03:50;;;;;;;;;1.00;1.00;;;;;23.50;49.69;102051.94;5076701;27;45512;-58
2023/08/21 01:06:16;;;;;;;;;2.75;1.00;;;;;23.47;49.64;102050.34;5071258;27;65543;-57
2023/08/21 01:09:07;;;;;;;;;1.00;1.00;;;;;23.44;49.71;102053.31;5086288;27;61950;-57
2023/08/21 01:11:44;;;;;;;;;1.00;1.00;;;;;23.41;49.70;102057.19;5099645;27;45431;-57
2023/08/21 01:14:17;;;;;;;;;0.50;0.50;;;;;23.35;49.87;102056.81;5100868;27;45514;-57
2023/08/21 01:16:43;;;;;;;;;2.75;1.25;;;;;23.32;50.02;102057.09;5098565;27;45322;-58
2023/08/21 01:19:18;;;;;;;;;1.00;0.75;;;;;23.33;49.62;102058.81;5080793;27;45480;-57
2023/08/21 01:21:43;;;;;;;;;2.00;1.00;;;;;23.31;50.17;102058.06;5077793;27;45518;-57
2023/08/21 01:24:08;;;;;;;;;3.00;0.75;;;;;23.26;50.04;102062.03;5095164;27;45308;-58
2023/08/21 01:26:34;;;;;;;;;1.50;1.50;;;;;23.20;50.06;102062.56;5093280;27;72566;-57
2023/08/21 01:28:59;;;;;;;;;2.75;1.00;;;;;23.16;50.41;102063.81;5086712;27;53689;-57
2023/08/21 01:31:32;;;;;;;;;0.50;0.50;;;;;23.16;50.28;102068.38;5077199;27;65452;-57
2023/08/21 01:34:02;;;;;;;;;1.00;1.00;;;;;23.13;50.23;102062.19;5063659;28;45456;-57
2023/08/21 01:36:28;;;;;;;;;4.00;1.00;;;;;23.13;51.24;102062.19;5095567;27;45462;-58
2023/08/21 01:38:53;;;;;;;;;1.00;1.00;;;;;23.14;50.53;102060.38;5074817;27;69845;-57
2023/08/21 01:41:18;;;;;;;;;2.00;0.75;;;;;23.13;50.59;102058.63;5072346;27;45465;-58
2023/08/21 01:43:44;;;;;;;;;1.00;1.00;;;;;23.12;50.59;102059.59;5089892;27;61312;-57
2023/08/21 01:46:09;;;;;;;;;1.50;1.50;;;;;23.10;50.89;102059.72;5099337;27;47958;-57
2023/08/21 01:48:35;;;;;;;;;1.00;1.00;;;;;23.09;50.93;102070.72;5086899;27;45466;-58
2023/08/21 01:51:02;;;;;;;;;2.00;1.00;;;;;23.06;50.55;102062.81;5091814;27;45378;-58
2023/08/21 01:53:27;;;;;;;;;1.25;1.00;;;;;23.02;50.95;102064.06;5080548;27;45669;-57
2023/08/21 01:55:53;;;;;;;;;2.75;1.00;;;;;23.00;50.76;102058.78;5080318;27;46128;-57
2023/08/21 01:58:18;;;;;;;;;2.00;1.00;;;;;22.94;51.19;102064.72;5092117;27;45454;-58
2023/08/21 02:00:46;;;;;;;;;1.00;1.00;;;;;22.92;51.51;102062.13;5094451;27;64712;-58
2023/08/21 02:03:12;;;;;;;;;2.50;1.00;;;;;22.90;51.18;102064.09;5080180;27;45326;-58
2023/08/21 02:05:39;;;;;;;;;2.00;1.00;;;;;22.88;51.45;102063.38;5093954;27;71930;-58
2023/08/21 02:08:06;;;;;;;;;1.00;1.00;;;;;22.87;51.54;102064.34;5079542;27;45584;-58
2023/08/21 02:10:31;;;;;;;;;2.00;1.00;;;;;22.88;51.82;102059.78;5093243;27;45413;-58
2023/08/21 02:12:56;;;;;;;;;1.00;1.00;;;;;22.87;51.49;102060.78;5095125;27;68812;-58
2023/08/21 02:15:22;;;;;;;;;2.00;1.67;;;;;22.84;51.51;102047.47;5097665;27;51489;-58
2023/08/21 02:17:47;;;;;;;;;1.75;1.75;;;;;22.82;51.88;102046.75;5092738;27;45250;-58
2023/08/21 02:20:12;;;;;;;;;1.00;1.00;;;;;22.81;51.92;102054.00;5090225;27;45704;-58
2023/08/21 02:22:38;;;;;;;;;0.25;0.25;;;;;22.78;51.93;102051.56;5079032;27;48589;-58
2023/08/21 02:25:04;;;;;;;;;1.50;1.00;;;;;22.73;51.87;102053.78;5079429;27;55536;-58
2023/08/21 02:27:29;;;;;;;;;3.50;0.75;;;;;22.71;51.92;102058.47;5080420;27;45446;-58
2023/08/21 02:29:54;;;;;;;;;1.00;1.00;;;;;22.68;52.21;102054.16;5084062;27;64960;-58
2023/08/21 02:32:20;;;;;;;;;0.75;0.75;;;;;22.67;52.27;102048.88;5090900;27;59137;-58
2023/08/21 02:34:45;;;;;;;;;4.50;1.75;;;;;22.65;51.78;102056.28;5092914;27;47321;-58
2023/08/21 02:37:10;;;;;;;;;0.00;0.00;;;;;22.62;52.24;102051.97;5085317;27;45682;-58
2023/08/21 02:39:36;;;;;;;;;2.00;1.00;;;;;22.59;52.25;102047.66;5086982;27;63854;-58
2023/08/21 02:42:01;;;;;;;;;1.00;1.00;;;;;22.59;52.46;102057.63;5092217;27;45500;-57
2023/08/21 02:44:26;;;;;;;;;4.00;2.00;;;;;22.57;52.63;102057.75;5084837;27;57885;-57
2023/08/21 02:46:52;;;;;;;;;2.25;2.00;;;;;22.56;53.03;102061.44;5090625;27;54725;-57
2023/08/21 02:49:17;;;;;;;;;1.00;1.00;;;;;22.55;52.57;102059.72;5087065;27;60015;-57
2023/08/21 02:51:42;;;;;;;;;3.50;1.00;;;;;22.53;53.00;102059.00;5094821;27;55655;-57
2023/08/21 02:54:08;;;;;;;;;3.00;2.00;;;;;22.54;52.82;102057.13;5099162;27;52557;-57
2023/08/21 02:56:33;;;;;;;;;2.00;2.00;;;;;22.54;52.86;102052.59;5094790;27;49166;-57
2023/08/21 02:58:58;;;;;;;;;1.00;1.00;;;;;22.57;53.05;102060.47;5080457;27;45388;-57
2023/08/21 03:01:24;;;;;;;;;3.50;2.00;;;;;22.59;53.09;102060.34;5097978;27;68029;-57
2023/08/21 03:03:49;;;;;;;;;1.00;1.00;;;;;22.60;52.72;102051.22;5067516;27;46154;-57
2023/08/21 03:06:16;;;;;;;;;1.00;1.00;;;;;22.60;53.35;102060.19;5092716;27;48937;-57
2023/08/21 03:08:43;;;;;;;;;3.00;1.50;;;;;22.59;52.83;102049.50;5086896;27;45376;-57
2023/08/21 03:11:09;;;;;;;;;4.00;2.00;;;;;22.55;53.24;102051.56;5095019;27;45783;-57
2023/08/21 03:13:34;;;;;;;;;0.50;0.50;;;;;22.52;53.39;102059.13;5085980;27;70482;-57
2023/08/21 03:15:59;;;;;;;;;1.50;1.50;;;;;22.49;53.05;102057.53;5079968;27;65311;-57
2023/08/21 03:18:25;;;;;;;;;1.00;1.00;;;;;22.45;53.25;102056.06;5090657;27;45481;-57
2023/08/21 03:20:50;;;;;;;;;2.75;1.00;;;;;22.43;53.35;102049.88;5095147;27;45341;-57
2023/08/21 03:23:15;;;;;;;;;1.25;1.00;;;;;22.40;53.34;102051.00;5090789;27;62184;-57
2023/08/21 03:25:41;;;;;;;;;0.00;0.00;;;;;22.39;53.86;102054.69;5094181;27;45381;-58
2023/08/21 03:28:06;;;;;;;;;1.50;1.50;;;;;22.39;53.44;102053.84;5087647;27;62574;-57
2023/08/21 03:30:31;;;;;;;;;2.25;1.25;;;;;22.38;53.36;102049.41;5097511;27;65291;-57
2023/08/21 03:32:57;;;;;;;;;1.75;1.75;;;;;22.38;53.80;102060.22;5080855;27;46208;-57
2023/08/21 03:35:22;;;;;;;;;0.50;0.25;;;;;22.37;53.62;102063.94;5088263;27;51195;-57
2023/08/21 03:37:47;;;;;;;;;2.00;2.00;;;;;22.36;53.56;102054.06;5084568;27;61838;-57
2023/08/21 03:40:13;;;;;;;;;1.75;1.75;;;;;22.35;53.78;102052.31;5068508;27;51649;-57
2023/08/21 03:42:38;;;;;;;;;3.00;1.00;;;;;22.33;53.75;102065.97;5073025;27;46193;-57
2023/08/21 03:45:04;;;;;;;;;3.00;1.00;;;;;22.30;53.57;102072.50;5072304;27;45336;-57
2023/08/21 03:47:30;;;;;;;;;3.00;1.00;;;;;22.27;53.50;102069.22;5090354;27;45291;-57
2023/08/21 03:49:55;;;;;;;;;1.00;1.00;;;;;22.26;53.75;102064.75;5092206;27;45414;-57
2023/08/21 03:52:21;;;;;;;;;3.00;2.00;;;;;22.23;54.04;102063.16;5089747;27;55580;-57
2023/08/21 03:54:46;;;;;;;;;3.00;2.00;;;;;22.21;53.96;102065.13;5094891;27;67560;-57
2023/08/21 03:57:11;;;;;;;;;3.75;2.75;;;;;22.20;54.04;102060.72;5092309;27;65312;-57
2023/08/21 03:59:37;;;;;;;;;2.00;2.00;;;;;22.18;54.01;102062.66;5097791;27;57600;-57
2023/08/21 04:02:02;;;;;;;;;1.00;1.00;;;;;22.16;53.77;102061.91;5089816;27;46023;-57
2023/08/21 04:04:27;;;;;;;;;2.00;2.00;;;;;22.13;53.92;102070.28;5099866;27;53252;-57
2023/08/21 04:06:53;;;;;;;;;1.00;1.00;;;;;22.08;54.27;102057.09;5092916;27;52757;-57
2023/08/21 04:09:18;;;;;;;;;2.50;2.50;;;;;22.07;54.32;102068.06;5083761;27;70367;-57
2023/08/21 04:11:43;;;;;;;;;2.00;2.00;;;;;22.06;53.96;102066.34;5091271;27;60588;-57
2023/08/21 04:14:09;;;;;;;;;2.50;1.50;;;;;22.04;54.36;102076.44;5099280;27;67863;-57
2023/08/21 04:16:34;;;;;;;;;3.00;1.25;;;;;22.03;54.29;102072.00;5089397;27;66889;-57
2023/08/21 04:18:59;;;;;;;;;3.00;2.00;;;;;22.01;54.59;102074.00;5095963;27;45405;-57
2023/08/21 04:21:24;;;;;;;;;3.25;2.00;;;;;22.00;54.78;102074.97;5082155;27;72724;-57
2023/08/21 04:23:50;;;;;;;;;1.00;0.25;;;;;21.94;54.42;102079.00;5091893;27;59838;-57
2023/08/21 04:26:15;;;;;;;;;3.00;1.75;;;;;21.89;54.47;102078.50;5101977;27;46043;-57
2023/08/21 04:28:41;;;;;;;;;3.00;1.75;;;;;21.85;55.28;102082.44;5086415;27;45314;-57
2023/08/21 04:31:07;;;;;;;;;3.25;2.25;;;;;21.78;54.76;102082.06;5099070;27;45504;-57
2023/08/21 04:33:33;;;;;;;;;3.50;1.50;;;;;21.75;55.17;102087.72;5089280;27;45480;-58
2023/08/21 04:35:59;;;;;;;;;2.00;2.00;;;;;21.72;55.86;102082.50;5101226;27;45428;-57
2023/08/21 04:38:24;;;;;;;;;2.50;2.00;;;;;21.70;56.10;102081.78;5092966;27;45376;-57
2023/08/21 04:40:50;;;;;;;;;2.50;2.50;;;;;21.68;55.98;102083.75;5100765;27;47193;-57
2023/08/21 04:43:16;;;;;;;;;3.25;2.00;;;;;21.65;55.62;102095.66;5098619;27;46393;-59
2023/08/21 04:45:54;;;;;;;;;2.00;2.00;;;;;21.64;56.16;102102.06;5090402;27;65621;-58
2023/08/21 04:48:20;;;;;;;;;3.75;2.00;;;;;21.63;56.14;102101.22;5093299;27;45793;-57
2023/08/21 04:50:46;;;;;;;;;2.50;2.00;;;;;21.62;55.82;102090.50;5094405;27;45753;-58
2023/08/21 04:53:11;;;;;;;;;4.25;3.00;;;;;21.61;56.04;102100.44;5101005;27;57101;-57
2023/08/21 04:55:36;;;;;;;;;3.25;1.75;;;;;21.60;56.03;102089.75;5096055;27;45339;-57
2023/08/21 04:58:02;;;;;;;;;4.00;2.50;;;;;21.59;56.15;102102.44;5094681;27;45415;-57
2023/08/21 05:00:27;;;;;;;;;3.75;2.00;;;;;21.58;56.31;102105.25;5085380;27;46085;-57
2023/08/21 05:02:53;;;;;;;;;2.75;1.75;;;;;21.56;56.43;102108.09;5099024;27;45337;-58
2023/08/21 05:05:18;;;;;;;;;3.00;3.00;;;;;21.55;56.45;102106.34;5093591;27;46002;-57
2023/08/21 05:07:43;;;;;;;;;2.75;1.75;;;;;21.55;56.69;102105.47;5092038;27;45456;-57
2023/08/21 05:10:09;;;;;;;;;3.00;3.00;;;;;21.54;56.79;102106.44;5087341;27;72289;-57
2023/08/21 05:12:35;;;;;;;;;3.00;2.00;;;;;21.56;56.72;102115.31;5087168;27;45441;-58
2023/08/21 05:15:00;;;;;;;;;3.75;2.25;;;;;21.55;56.52;102111.78;5081797;27;48407;-58
2023/08/21 05:17:26;;;;;;;;;2.00;2.00;;;;;21.55;57.21;102109.06;5092486;27;53879;-58
2023/08/21 05:19:51;;;;;;;;;2.50;2.00;;;;;21.56;56.88;102109.91;5099131;27;45528;-58
2023/08/21 05:22:17;;;;;;;;;3.00;1.75;;;;;21.58;56.43;102111.53;5093221;27;70622;-58
2023/08/21 05:24:42;;;;;;;;;3.00;1.25;;;;;21.60;56.27;102109.56;5093488;27;65527;-58
2023/08/21 05:27:08;;;;;;;;;4.75;3.00;;;;;21.63;56.68;102101.22;5100228;27;45391;-58
2023/08/21 05:29:34;;;;;;;;;2.00;2.00;;;;;21.67;56.97;102112.66;5080128;27;47065;-58
2023/08/21 05:32:00;;;;;;;;;3.00;2.00;;;;;21.70;56.82;102117.84;5084138;27;45440;-58
2023/08/21 05:34:25;;;;;;;;;2.00;1.00;;;;;21.71;56.84;102108.75;5097638;27;46400;-58
2023/08/21 05:36:50;;;;;;;;;1.25;1.25;;;;;21.77;56.58;102118.22;5091111;27;45422;-58
2023/08/21 05:39:16;;;;;;;;;2.00;2.00;;;;;21.81;56.57;102119.72;5097403;27;46045;-58
2023/08/21 05:41:41;;;;;;;;;3.75;2.00;;;;;21.85;56.97;102115.81;5094078;27;50648;-58
2023/08/21 05:44:06;;;;;;;;;3.25;2.00;;;;;21.89;56.75;102116.41;5083751;27;45648;-58
2023/08/21 05:46:32;;;;;;;;;1.00;1.00;;;;;21.92;56.77;102111.63;5090467;27;63298;-58
2023/08/21 05:48:57;;;;;;;;;2.00;1.00;;;;;21.96;56.14;102115.81;5081248;27;73969;-58
2023/08/21 05:51:22;;;;;;;;;3.00;2.25;;;;;22.17;56.80;102116.97;5093197;27;69030;-58
2023/08/21 05:53:47;;;;;;;;;4.50;1.50;;;;;22.41;56.41;102127.72;5100395;27;45394;-58
2023/08/21 05:56:13;;;;;;;;;2.25;2.25;;;;;22.63;55.65;102116.91;5085115;27;67614;-59
2023/08/21 05:58:38;;;;;;;;;4.25;1.00;;;;;22.84;55.27;102116.16;5090060;27;57101;-59
2023/08/21 06:01:03;;;;;;;;;2.50;2.00;;;;;23.06;54.88;102122.50;5085078;27;45419;-59
2023/08/21 06:03:29;;;;;;;;;0.25;0.25;;;;;23.21;54.75;102123.97;5088209;27;57547;-59
2023/08/21 06:05:54;;;;;;;;;2.00;2.00;;;;;23.35;54.40;102125.56;5086661;27;45694;-59
2023/08/21 06:08:19;;;;;;;;;1.50;1.50;;;;;23.46;54.08;102136.34;5092239;27;46914;-59
2023/08/21 06:10:45;;;;;;;;;3.75;2.25;;;;;23.54;54.00;102129.41;5088984;27;45557;-60
2023/08/21 06:13:10;;;;;;;;;2.00;2.00;;;;;23.60;53.49;102128.91;5089274;27;63475;-60
2023/08/21 06:15:35;;;;;;;;;2.00;2.00;;;;;23.56;53.62;102136.44;5090528;27;68027;-60
2023/08/21 06:18:01;;;;;;;;;1.00;1.00;;;;;23.52;53.30;102140.41;5080213;27;50336;-60
2023/08/21 06:20:26;;;;;;;;;1.75;0.75;;;;;23.56;53.80;102136.44;5068055;27;45821;-60
2023/08/21 06:22:52;;;;;;;;;1.50;1.50;;;;;23.63;52.65;102144.94;5085103;27;58220;-59
2023/08/21 06:25:19;;;;;;;;;2.75;1.00;;;;;23.60;52.80;102137.91;5071339;28;45469;-58
2023/08/21 06:27:44;;;;;;;;;1.75;1.75;;;;;23.57;52.53;102145.44;5082144;27;45993;-59
2023/08/21 06:30:10;;;;;;;;;1.25;1.25;;;;;23.55;52.83;102139.31;5089812;27;45559;-59
2023/08/21 06:32:35;;;;;;;;;2.00;1.00;;;;;23.56;52.61;102141.88;5089251;27;45970;-58
2023/08/21 06:35:00;;;;;;;;;4.00;2.00;;;;;23.85;52.36;102137.69;5079097;27;45764;-59
2023/08/21 06:37:26;;;;;;;;;3.00;2.00;;;;;26.39;50.98;102134.69;5077935;27;71017;-59
2023/08/21 06:39:52;;;;;;;;;1.25;1.25;;;;;29.59;47.10;102125.47;5079383;27;45379;-58
2023/08/21 06:42:17;;;;;;;;;1.50;1.00;;;;;32.45;42.74;102131.50;5084480;27;45545;-59
2023/08/21 06:44:42;;;;;;;;;3.50;1.75;;;;;34.86;38.18;102132.00;5083224;27;45393;-59
2023/08/21 06:47:08;;;;;;;;;2.00;2.00;;;;;36.90;34.80;102137.03;5079012;27;51536;-59
2023/08/21 06:49:33;;;;;;;;;1.00;1.00;;;;;38.66;31.64;102127.81;5066661;27;45760;-59
2023/08/21 06:51:59;;;;;;;;;2.00;0.00;;;;;40.11;29.61;102143.56;5089767;27;63297;-59
2023/08/21 06:54:24;;;;;;;;;0.25;0.00;;;;;41.43;26.93;102144.84;5094451;27;45349;-60
2023/08/21 06:56:49;;;;;;;;;0.50;0.50;;;;;42.48;25.46;102144.19;5074534;27;73686;-60
2023/08/21 06:59:15;;;;;;;;;1.25;1.25;;;;;43.40;24.18;102143.50;5081143;27;70046;-59
2023/08/21 07:01:40;;;;;;;;;0.00;0.00;;;;;44.22;23.62;102148.84;5088498;27;45564;-58
2023/08/21 07:04:06;;;;;;;;;2.25;0.00;;;;;44.97;22.37;102140.16;5087132;27;67275;-61
2023/08/21 07:06:31;;;;;;;;;0.00;0.00;;;;;45.70;21.56;102135.41;5065301;27;47551;-61
2023/08/21 07:08:57;;;;;;;;;0.25;0.25;;;;;46.34;20.63;102133.03;5088742;27;45533;-59
2023/08/21 07:11:22;;;;;;;;;2.00;0.00;;;;;47.01;20.94;102135.44;5092030;27;67175;-59
2023/08/21 07:13:48;;;;;;;;;0.00;0.00;;;;;47.59;19.68;102140.34;5091405;27;45896;-59
2023/08/21 07:16:13;;;;;;;;;1.75;0.00;;;;;48.15;18.85;102143.66;5085239;27;46005;-59
2023/08/21 07:18:38;;;;;;;;;0.00;0.00;;;;;48.59;18.83;102139.72;5085601;27;45385;-59
2023/08/21 07:21:04;;;;;;;;;0.00;0.00;;;;;48.91;17.42;102140.13;5093031;27;45346;-59
2023/08/21 07:23:31;;;;;;;;;0.50;0.00;;;;;49.24;16.51;102138.16;5091313;27;45535;-60
2023/08/21 07:25:57;;;;;;;;;0.00;0.00;;;;;49.56;16.66;102144.13;5083199;27;46061;-60
2023/08/21 07:28:23;;;;;;;;;0.00;0.00;;;;;49.82;16.71;102150.16;5093956;27;45555;-60
2023/08/21 07:30:48;;;;;;;;;0.00;0.00;;;;;50.04;15.84;102155.13;5087417;27;59516;-60
2023/08/21 07:33:13;;;;;;;;;0.00;0.00;;;;;50.20;15.49;102149.97;5090426;27;63723;-60
2023/08/21 07:35:39;;;;;;;;;0.00;0.00;;;;;50.19;15.52;102150.28;5092115;27;46055;-60
2023/08/21 07:38:04;;;;;;;;;0.00;0.00;;;;;50.56;14.73;102156.81;5087059;27;46312;-60
2023/08/21 07:40:30;;;;;;;;;0.00;0.00;;;;;50.83;14.52;102169.25;5092842;27;45706;-60
2023/08/21 07:42:55;;;;;;;;;0.00;0.00;;;;;51.13;14.43;102165.66;5076035;27;54541;-60
2023/08/21 07:45:20;;;;;;;;;0.25;0.00;;;;;51.24;13.05;102166.25;5089498;27;46370;-60
2023/08/21 07:47:46;;;;;;;;;0.00;0.00;;;;;51.26;14.16;102168.75;5086092;27;45423;-60
2023/08/21 07:50:14;;;;;;;;;0.00;0.00;;;;;51.43;13.86;102159.56;5092379;27;47160;-60
2023/08/21 07:52:39;;;;;;;;;0.00;0.00;;;;;51.62;13.49;102162.16;5090399;27;45885;-60
2023/08/21 07:55:04;;;;;;;;;1.00;0.00;;;;;51.84;12.76;102154.75;5089599;27;47171;-60
2023/08/21 07:57:30;;;;;;;;;0.00;0.00;;;;;52.07;13.69;102156.31;5091049;27;45359;-60
2023/08/21 07:59:55;;;;;;;;;0.00;0.00;;;;;52.28;12.52;102152.91;5083350;27;45497;-61
2023/08/21 08:02:21;;;;;;;;;0.50;0.00;;;;;52.43;12.60;102155.28;5097975;27;69032;-60
2023/08/21 08:04:47;;;;;;;;;0.00;0.00;;;;;52.54;13.54;102154.97;5089055;27;72042;-60
2023/08/21 08:07:12;;;;;;;;;0.00;0.00;;;;;52.44;12.67;102156.13;5086622;27;45497;-61
2023/08/21 08:09:37;;;;;;;;;0.00;0.00;;;;;52.58;12.31;102153.13;5089222;27;47164;-60
2023/08/21 08:12:03;;;;;;;;;0.00;0.00;;;;;52.86;12.27;102158.47;5098413;27;59052;-60
2023/08/21 08:14:28;;;;;;;;;0.00;0.00;;;;;53.13;12.31;102159.31;5099166;27;46854;-61
2023/08/21 08:16:54;;;;;;;;;3.25;1.00;;;;;53.32;11.96;102156.13;5085301;27;69974;-61
2023/08/21 08:19:19;;;;;;;;;0.00;0.00;;;;;53.51;11.70;102158.56;5087522;27;58980;-60
2023/08/21 08:21:44;;;;;;;;;0.00;0.00;;;;;53.55;11.27;102153.88;5067248;27;49022;-60
2023/08/21 08:24:10;;;;;;;;;0.00;0.00;;;;;53.54;11.10;102158.72;5096494;27;68623;-60
2023/08/21 08:26:35;;;;;;;;;0.00;0.00;;;;;53.67;10.43;102156.84;5093821;27;51280;-61
2023/08/21 08:29:01;;;;;;;;;0.00;0.00;;;;;53.83;11.01;102156.28;5087927;27;60617;-60
2023/08/21 08:31:27;;;;;;;;;0.00;0.00;;;;;52.66;10.88;102152.28;5091433;27;58469;-61
2023/08/21 08:33:55;;;;;;;;;0.00;0.00;;;;;50.90;12.19;102152.63;5096382;27;47018;-60
2023/08/21 08:36:21;;;;;;;;;0.00;0.00;;;;;50.85;12.90;102147.09;5067516;27;45418;-60
2023/08/21 08:38:46;;;;;;;;;0.00;0.00;;;;;51.24;12.86;102145.56;5090712;27;45469;-61
2023/08/21 08:41:31;;;;;;;;;0.00;0.00;;;;;52.04;12.46;102145.66;5090446;27;67961;-61
2023/08/21 08:44:00;;;;;;;;;0.00;0.00;;;;;52.79;11.10;102152.50;5064107;27;45797;-61
2023/08/21 08:46:27;;;;;;;;;0.00;0.00;;;;;53.11;11.09;102148.31;5085567;27;45499;-61
2023/08/21 08:48:53;;;;;;;;;0.75;0.00;;;;;53.08;10.90;102140.41;5077253;27;45342;-61
2023/08/21 08:51:18;;;;;;;;;0.00;0.00;;;;;52.82;11.58;102141.31;5097244;27;53272;-61
2023/08/21 08:53:44;;;;;;;;;0.00;0.00;;;;;50.30;11.84;102143.22;5090478;27;75619;-61
2023/08/21 08:56:09;;;;;;;;;0.00;0.00;;;;;47.36;13.60;102141.94;5091442;27;68126;-61
2023/08/21 08:58:35;;;;;;;;;0.00;0.00;;;;;47.07;14.30;102136.25;5094460;27;45402;-60
2023/08/21 09:01:00;;;;;;;;;0.50;0.00;;;;;48.30;13.71;102137.03;5093159;27;45283;-60
2023/08/21 09:03:26;;;;;;;;;0.75;0.00;;;;;49.54;12.87;102135.13;5084054;27;45975;-61
2023/08/21 09:05:51;;;;;;;;;0.00;0.00;;;;;50.46;13.07;102130.44;5085991;27;68051;-61
2023/08/21 09:08:16;;;;;;;;;0.00;0.00;;;;;51.16;12.25;102132.22;5090119;27;45722;-61
2023/08/21 09:10:42;;;;;;;;;0.00;0.00;;;;;51.80;12.50;102137.56;5086216;27;45542;-61
2023/08/21 09:13:16;;;;;;;;;0.00;0.00;;;;;52.39;11.56;102130.72;5071538;27;46215;-61
2023/08/21 09:15:49;;;;;;;;;0.00;0.00;;;;;52.68;11.58;102132.09;5073558;27;46446;-61
2023/08/21 09:18:15;;;;;;;;;0.50;0.00;;;;;52.82;10.94;102129.97;5093826;27;45624;-61
2023/08/21 09:20:41;;;;;;;;;0.00;0.00;;;;;52.85;11.88;102131.28;5091037;27;45506;-61
2023/08/21 09:23:08;;;;;;;;;0.00;0.00;;;;;53.15;10.69;102126.56;5094079;27;46398;-61
2023/08/21 09:25:38;;;;;;;;;0.00;0.00;;;;;53.41;11.71;102125.66;5091964;27;45753;-61
2023/08/21 09:28:08;;;;;;;;;0.00;0.00;;;;;53.55;10.98;102123.47;5087932;27;45421;-61
2023/08/21 09:30:46;;;;;;;;;0.00;0.00;;;;;53.50;10.96;102120.81;5091344;27;45493;-62
2023/08/21 09:33:11;;;;;;;;;0.25;0.00;;;;;53.65;10.82;102119.38;5069839;27;47037;-61
2023/08/21 09:35:37;;;;;;;;;0.00;0.00;;;;;53.94;10.84;102116.91;5091588;27;45768;-61
2023/08/21 09:38:03;;;;;;;;;0.75;0.00;;;;;54.21;10.65;102121.28;5083396;27;68356;-61
2023/08/21 09:40:28;;;;;;;;;1.00;0.00;;;;;54.40;10.93;102120.81;5089800;27;45626;-62
2023/08/21 09:42:55;;;;;;;;;0.00;0.00;;;;;54.48;9.97;102113.41;5082086;27;68603;-61
2023/08/21 09:45:22;;;;;;;;;0.00;0.00;;;;;54.31;10.20;102114.38;5090131;27;45775;-61
2023/08/21 09:47:48;;;;;;;;;0.75;0.00;;;;;54.27;10.65;102111.38;5088456;27;45499;-61
2023/08/21 09:50:13;;;;;;;;;0.00;0.00;;;;;54.15;11.51;102108.44;5073088;27;45486;-61
2023/08/21 09:52:39;;;;;;;;;0.00;0.00;;;;;54.14;11.03;102110.47;5099261;27;45902;-63
2023/08/21 09:55:05;;;;;;;;;0.00;0.00;;;;;53.98;10.59;102106.50;5094543;27;64160;-61
2023/08/21 09:57:31;;;;;;;;;0.75;0.00;;;;;53.76;10.57;102104.78;5069520;27;45691;-62
2023/08/21 09:59:57;;;;;;;;;0.00;0.00;;;;;53.79;10.93;102104.16;5075472;27;47663;-62
2023/08/21 10:02:23;;;;;;;;;0.00;0.00;;;;;53.68;11.16;102110.19;5075632;27;69814;-62
2023/08/21 10:04:49;;;;;;;;;1.00;0.00;;;;;53.52;10.49;102106.25;5093144;27;45512;-62
2023/08/21 10:07:16;;;;;;;;;0.25;0.00;;;;;53.49;11.70;102104.94;5098672;27;45470;-62
2023/08/21 10:09:42;;;;;;;;;0.50;0.00;;;;;53.39;11.42;102100.44;5066219;27;45438;-62
2023/08/21 10:12:13;;;;;;;;;0.00;0.00;;;;;53.09;12.03;102096.66;5064257;27;46327;-62
2023/08/21 10:14:38;;;;;;;;;2.50;0.00;;;;;52.73;11.09;102106.41;5054123;27;45872;-61
2023/08/21 10:17:05;;;;;;;;;0.00;0.00;;;;;52.68;10.63;102100.88;5073049;27;64414;-62
2023/08/21 10:19:32;;;;;;;;;0.25;0.00;;;;;52.59;11.83;102093.19;5070192;27;45522;-61
2023/08/21 10:21:59;;;;;;;;;0.00;0.00;;;;;52.58;11.41;102093.53;5091170;27;46956;-62
2023/08/21 10:24:28;;;;;;;;;16.75;15.25;;;;;52.60;11.06;102085.53;5081900;27;45289;-62
2023/08/21 10:26:54;;;;;;;;;0.00;0.00;;;;;52.61;11.17;102081.50;5087317;27;45458;-62
2023/08/21 10:29:21;;;;;;;;;1.00;1.00;;;;;52.48;11.45;102085.38;5070458;27;45511;-61
2023/08/21 10:31:46;;;;;;;;;0.00;0.00;;;;;52.25;11.58;102085.50;5087368;27;51265;-61
2023/08/21 10:34:12;;;;;;;;;1.00;1.00;;;;;51.81;11.34;102081.72;5073417;27;57156;-61
2023/08/21 10:36:43;;;;;;;;;1.25;0.75;;;;;51.42;12.58;102076.56;5084718;27;45473;-61
2023/08/21 10:39:35;;;;;;;;;4.50;2.50;;;;;50.99;12.03;102073.44;5088744;27;45397;-61
2023/08/21 10:42:07;;;;;;;;;0.00;0.00;;;;;50.67;12.39;102073.38;5077273;27;47118;-61
2023/08/21 10:47:20;;;;;;;;;0.00;0.00;;;;;50.28;12.56;102060.72;5098933;27;45419;-62
2023/08/21 10:49:54;;;;;;;;;0.75;0.75;;;;;50.08;12.57;102060.03;5092142;27;45430;-61
2023/08/21 10:52:23;;;;;;;;;0.00;0.00;;;;;49.76;12.84;102063.81;5090600;27;45808;-61
2023/08/21 10:54:51;;;;;;;;;0.00;0.00;;;;;49.15;12.81;102055.31;5082361;27;46415;-61
2023/08/21 10:57:16;;;;;;;;;1.00;0.00;;;;;48.83;14.09;102052.19;5096796;27;45421;-61
2023/08/21 10:59:52;;;;;;;;;0.00;0.00;;;;;48.50;13.84;102045.63;5093214;27;45533;-61
2023/08/21 11:02:18;;;;;;;;;1.25;0.50;;;;;48.18;14.24;102048.09;5074443;27;47158;-61
2023/08/21 11:04:44;;;;;;;;;0.00;0.00;;;;;47.71;14.23;102046.97;5091033;27;45354;-61
2023/08/21 11:07:10;;;;;;;;;0.25;0.00;;;;;46.97;15.05;102052.75;5098203;27;45464;-61
2023/08/21 11:09:36;;;;;;;;;1.00;0.00;;;;;46.12;14.95;102041.47;5090796;27;45411;-61
2023/08/21 11:12:22;;;;;;;;;0.00;0.00;;;;;45.42;15.36;102051.50;5091537;27;46111;-61
2023/08/21 11:14:48;;;;;;;;;0.40;0.00;;;;;45.12;15.43;102048.72;5090386;27;45497;-62
2023/08/21 11:17:14;;;;;;;;;0.00;0.00;;;;;45.18;16.12;102047.59;5090678;27;45385;-61
2023/08/21 11:19:42;;;;;;;;;0.00;0.00;;;;;45.44;15.54;102045.59;5097600;27;45386;-62
2023/08/21 11:22:08;;;;;;;;;1.25;0.00;;;;;45.53;15.96;102049.53;5086539;27;46308;-61